Time;durP1;ratioP1;P1;durP2;ratioP2;P2;SDS_P1;SDS_P2;PMS_P1;PMS_P2;Temp;Humidity;BMP_temperature;BMP_pressure;BME280_temperature;BME280_humidity;BME280_pressure;Samples;Min_cycle;Max_cycle;Signal;HPM_P1;HPM_P2
2023/05/24 00:01:42;;;;;;;1.30;1.30;;;;;;;;;;5034938;23;20243;-93
2023/05/24 00:13:40;;;;;;;;;;;;;;;;;;;;;
2023/05/24 00:39:18;;;;;;;1.53;1.33;;;;;;;;;;5554524;22;15234808;-93
2023/05/24 00:45:09;;;;;;;2.17;1.47;;;;;;;;;;6247547;23;20198;-91
2023/05/24 01:03:11;;;;;;;1.90;1.60;;;;;;;;;;6306393;22;20177;-94
2023/05/24 01:06:19;;;;;;;1.33;1.33;;;;;;;;;;6307729;22;20244;-92
2023/05/24 01:09:19;;;;;;;6.47;1.20;;;;;;;;;;6308586;22;20225;-93
2023/05/24 01:12:15;;;;;;;1.27;1.03;;;;;;;;;;6308074;22;20174;-93
2023/05/24 01:23:37;;;;;;;1.40;1.23;;;;;;;;;;6307290;22;20192;-94
2023/05/24 01:30:01;;;;;;;2.23;1.50;;;;;;;;;;6279766;22;20158;-93
2023/05/24 01:32:50;;;;;;;2.23;1.87;;;;;;;;;;6307306;22;20176;-93
2023/05/24 01:41:40;;;;;;;2.37;1.43;;;;;;;;;;6239426;22;20167;-93
2023/05/24 01:44:30;;;;;;;1.17;1.17;;;;;;;;;;6301300;22;20162;-93
2023/05/24 01:47:21;;;;;;;2.13;1.97;;;;;;;;;;6302399;22;20186;-94
2023/05/24 01:56:14;;;;;;;1.27;1.27;;;;;;;;;;6303494;22;20205;-91
2023/05/24 01:59:01;;;;;;;2.00;1.90;;;;;;;;;;6246538;22;20201;-92
2023/05/24 02:01:52;;;;;;;1.57;1.47;;;;;;;;;;6270969;22;20202;-92
2023/05/24 02:07:35;;;;;;;1.83;1.07;;;;;;;;;;6272822;22;20198;-93
2023/05/24 02:10:37;;;;;;;3.27;1.70;;;;;;;;;;6273382;22;20158;-93
2023/05/24 02:13:29;;;;;;;1.87;1.77;;;;;;;;;;6243484;23;20170;-92
2023/05/24 02:19:23;;;;;;;;;;;;;;;;;;;;;
2023/05/24 02:25:47;;;;;;;2.33;2.13;;;;;;;;;;6234280;23;20163;-93
2023/05/24 02:34:25;;;;;;;5.87;2.13;;;;;;;;;;6258985;22;20208;-93
2023/05/24 03:00:01;;;;;;;1.90;1.70;;;;;;;;;;6272303;22;20251;-95
2023/05/24 03:39:11;;;;;;;1.15;1.15;;;;;;;;;;6298514;22;20264;-93
2023/05/24 03:42:05;;;;;;;3.15;1.88;;;;;;;;;;6268212;22;20169;-94
2023/05/24 04:03:24;;;;;;;2.92;2.70;;;;;;;;;;6236281;22;20229;-95
2023/05/24 04:28:02;;;;;;;1.70;1.70;;;;;;;;;;6220093;23;20230;-94
2023/05/24 04:30:57;;;;;;;2.25;2.15;;;;;;;;;;6233948;23;20164;-94
2023/05/24 04:33:58;;;;;;;2.00;1.90;;;;;;;;;;6232150;23;20171;-95
2023/05/24 05:01:42;;;;;;;3.85;3.53;;;;;;;;;;6259401;22;20179;-93
2023/05/24 05:07:30;;;;;;;3.17;3.00;;;;;;;;;;6258378;22;20185;-94
2023/05/24 05:13:29;;;;;;;3.70;3.50;;;;;;;;;;6222553;23;20170;-95
2023/05/24 05:16:36;;;;;;;3.08;2.78;;;;;;;;;;6226383;23;20182;-94
2023/05/24 05:24:56;;;;;;;2.92;2.80;;;;;;;;;;6178709;23;20166;-95
2023/05/24 05:39:39;;;;;;;4.13;3.38;;;;;;;;;;6255116;23;20173;-93
2023/05/24 05:42:32;;;;;;;3.35;3.15;;;;;;;;;;6168649;23;20208;-95
2023/05/24 05:45:15;;;;;;;3.80;3.50;;;;;;;;;;6255685;23;20162;-95
2023/05/24 05:56:24;;;;;;;3.40;3.08;;;;;;;;;;6257204;23;20238;-92
2023/05/24 06:08:28;;;;;;;;;;;;;;;;;;;;;
2023/05/24 06:39:30;;;;;;;4.45;3.80;;;;;;;;;;6125637;23;20171;-94
2023/05/24 06:42:12;;;;;;;3.47;3.28;;;;;;;;;;6223555;22;20192;-93
2023/05/24 06:44:58;;;;;;;3.58;3.25;;;;;;;;;;6259548;22;20166;-94
2023/05/24 06:54:02;;;;;;;3.00;2.80;;;;;;;;;;6263409;22;20261;-94
2023/05/24 06:57:04;;;;;;;3.30;3.10;;;;;;;;;;6221455;22;20229;-92
2023/05/24 07:03:00;;;;;;;;;;;;;;;;;;;;;
2023/05/24 07:08:47;;;;;;;3.47;3.17;;;;;;;;;;6245317;22;20198;-92
2023/05/24 07:11:23;;;;;;;3.47;2.47;;;;;;;;;;6252674;22;20212;-94
2023/05/24 07:14:05;;;;;;;3.55;3.17;;;;;;;;;;6253292;22;20223;-94
2023/05/24 07:19:20;;;;;;;9.98;3.60;;;;;;;;;;6250824;22;20177;-92
2023/05/24 07:22:11;;;;;;;3.72;3.05;;;;;;;;;;6251267;22;20182;-92
2023/05/24 07:24:57;;;;;;;3.33;3.13;;;;;;;;;;6249349;22;20245;-92
2023/05/24 07:30:38;;;;;;;3.67;3.38;;;;;;;;;;6226790;22;20628;-92
2023/05/24 07:33:38;;;;;;;4.03;3.65;;;;;;;;;;6251031;22;20169;-95
2023/05/24 07:36:32;;;;;;;;;;;;;;;;;;;;;
2023/05/24 07:39:15;;;;;;;2.38;2.28;;;;;;;;;;6253545;23;20173;-95
2023/05/24 09:21:35;;;;;;;1.17;1.17;;;;;;;;;;6120111;23;20279;-96
2023/05/24 09:27:30;;;;;;;2.75;1.48;;;;;;;;;;6144153;23;20454;-95
2023/05/24 09:30:22;;;;;;;1.40;1.30;;;;;;;;;;6245657;23;20719;-94
2023/05/24 09:36:01;;;;;;;2.72;1.52;;;;;;;;;;6249823;23;20194;-95
2023/05/24 09:41:53;;;;;;;1.30;1.30;;;;;;;;;;6251615;23;20218;-96
2023/05/24 09:47:34;;;;;;;1.02;1.02;;;;;;;;;;6250521;23;20218;-94
2023/05/24 09:50:07;;;;;;;4.10;1.20;;;;;;;;;;6251800;23;20237;-94
2023/05/24 09:53:09;;;;;;;1.10;1.10;;;;;;;;;;6260405;23;20191;-93
2023/05/24 09:55:43;;;;;;;1.20;1.20;;;;;;;;;;6253897;23;20663;-91
2023/05/24 10:01:19;;;;;;;1.60;1.50;;;;;;;;;;6238981;23;20229;-91
2023/05/24 10:04:11;;;;;;;;;;;;;;;;;;;;;
2023/05/24 10:09:32;;;;;;;1.23;1.15;;;;;;;;;;6257803;23;20218;-93
2023/05/24 10:12:41;;;;;;;1.17;1.17;;;;;;;;;;6251091;23;20296;-95
2023/05/24 10:15:19;;;;;;;1.30;1.30;;;;;;;;;;6257394;23;20209;-94
2023/05/24 10:21:13;;;;;;;1.40;1.40;;;;;;;;;;6087095;23;20269;-95
2023/05/24 10:24:00;;;;;;;1.40;1.35;;;;;;;;;;6253261;23;20194;-96
2023/05/24 10:33:03;;;;;;;1.05;1.05;;;;;;;;;;6134618;23;20205;-96
2023/05/24 10:38:45;;;;;;;1.10;1.10;;;;;;;;;;6129215;23;20263;-96
2023/05/24 10:47:07;;;;;;;1.13;1.13;;;;;;;;;;6235393;23;20209;-93
2023/05/24 10:50:02;;;;;;;;;;;;;;;;;;;;;
2023/05/24 10:52:48;;;;;;;1.13;1.13;;;;;;;;;;6249821;23;20197;-95
2023/05/24 11:02:17;;;;;;;2.13;1.20;;;;;;;;;;5097640;27;20633;-93
2023/05/24 11:07:43;;;;;;;1.08;1.08;;;;;;;;;;5091474;27;20230;-94
2023/05/24 11:10:28;;;;;;;1.33;1.33;;;;;;;;;;5101699;28;20221;-92
2023/05/24 11:13:13;;;;;;;1.30;1.30;;;;;;;;;;5074511;28;20223;-94
2023/05/24 11:16:04;;;;;;;1.85;1.75;;;;;;;;;;5072794;28;20249;-94
2023/05/24 11:18:56;;;;;;;1.42;1.33;;;;;;;;;;5081039;28;20219;-93
2023/05/24 11:21:41;;;;;;;1.17;1.17;;;;;;;;;;5067813;28;20243;-92
2023/05/24 11:30:35;;;;;;;1.42;1.27;;;;;;;;;;5033651;28;20747;-92
2023/05/24 11:33:32;;;;;;;2.47;1.20;;;;;;;;;;5049342;28;20219;-94
2023/05/24 11:36:03;;;;;;;1.52;1.52;;;;;;;;;;5043102;28;20257;-94
2023/05/24 11:38:57;;;;;;;1.48;1.30;;;;;;;;;;5048125;28;20232;-93
2023/05/24 11:44:48;;;;;;;1.38;1.38;;;;;;;;;;5046891;28;20305;-95
2023/05/24 11:47:23;;;;;;;1.02;1.02;;;;;;;;;;5049630;28;20224;-93
2023/05/24 11:52:59;;;;;;;1.40;1.40;;;;;;;;;;5044607;28;20235;-95
2023/05/24 11:55:45;;;;;;;;;;;;;;;;;;;;;
2023/05/24 11:58:36;;;;;;;1.58;1.48;;;;;;;;;;5051443;28;20234;-93
2023/05/24 12:01:36;;;;;;;1.33;1.20;;;;;;;;;;5051900;28;20339;-93
2023/05/24 12:04:09;;;;;;;1.38;1.38;;;;;;;;;;5010046;28;20239;-92
2023/05/24 12:07:09;;;;;;;1.00;1.00;;;;;;;;;;5048655;28;20223;-94
2023/05/24 12:09:52;;;;;;;1.40;1.35;;;;;;;;;;5046570;28;20224;-94
2023/05/24 12:12:26;;;;;;;5.47;1.23;;;;;;;;;;5039808;28;20235;-95
2023/05/24 12:15:02;;;;;;;1.50;1.42;;;;;;;;;;5032963;28;20247;-92
2023/05/24 12:17:48;;;;;;;3.13;1.13;;;;;;;;;;5037347;28;20223;-95
2023/05/24 12:20:29;;;;;;;1.50;1.50;;;;;;;;;;5038027;28;20232;-93
2023/05/24 12:23:12;;;;;;;1.20;1.20;;;;;;;;;;5039198;28;20234;-94
2023/05/24 12:25:57;;;;;;;1.30;1.30;;;;;;;;;;5035249;28;20783;-93
2023/05/24 12:28:34;;;;;;;1.05;1.05;;;;;;;;;;5038152;28;20287;-93
2023/05/24 12:31:12;;;;;;;1.40;1.40;;;;;;;;;;5055335;28;20245;-92
2023/05/24 12:36:51;;;;;;;1.23;1.20;;;;;;;;;;5048672;28;20215;-92
2023/05/24 12:39:43;;;;;;;2.05;1.40;;;;;;;;;;5044696;28;20239;-92
2023/05/24 12:42:50;;;;;;;;;;;;;;;;;;;;;
2023/05/24 12:48:27;;;;;;;1.35;1.30;;;;;;;;;;5037500;28;20280;-93
2023/05/24 12:51:11;;;;;;;1.13;1.10;;;;;;;;;;5051897;28;20216;-94
2023/05/24 12:56:28;;;;;;;1.55;1.55;;;;;;;;;;5050014;28;20251;-91
2023/05/24 12:59:05;;;;;;;1.27;1.15;;;;;;;;;;5052014;28;20247;-94
2023/05/24 13:01:49;;;;;;;1.25;1.25;;;;;;;;;;5049895;28;20254;-91
2023/05/24 13:04:24;;;;;;;0.95;0.95;;;;;;;;;;5051533;28;20255;-92
2023/05/24 13:07:07;;;;;;;1.13;1.13;;;;;;;;;;5051748;28;20588;-91
2023/05/24 13:10:01;;;;;;;;;;;;;;;;;;;;;
2023/05/24 13:13:14;;;;;;;;;;;;;;;;;;;;;
2023/05/24 13:16:09;;;;;;;1.33;1.30;;;;;;;;;;5051279;28;20228;-94
2023/05/24 13:18:48;;;;;;;1.10;1.10;;;;;;;;;;5034661;28;20247;-93
2023/05/24 13:21:34;;;;;;;0.68;0.68;;;;;;;;;;5039963;28;20235;-92
2023/05/24 13:27:13;;;;;;;1.20;1.20;;;;;;;;;;5036096;28;20220;-92
2023/05/24 13:33:13;;;;;;;1.48;1.23;;;;;;;;;;5022943;28;20351;-95
2023/05/24 13:36:19;;;;;;;4.93;1.33;;;;;;;;;;5010569;28;20246;-93
2023/05/24 13:45:02;;;;;;;1.40;1.30;;;;;;;;;;4921898;29;20807;-95
2023/05/24 13:47:55;;;;;;;1.17;1.10;;;;;;;;;;4928345;29;20252;-95
2023/05/24 13:50:59;;;;;;;;;;;;;;;;;;;;;
2023/05/24 14:02:16;;;;;;;;;;;;;;;;;;;;;
2023/05/24 14:04:52;;;;;;;5.78;1.42;;;;;;;;;;5072370;28;20230;-92
2023/05/24 14:16:50;;;;;;;1.35;1.35;;;;;;;;;;4974288;28;20284;-92
2023/05/24 14:19:51;;;;;;;1.15;1.15;;;;;;;;;;5013285;28;20233;-93
2023/05/24 14:22:40;;;;;;;2.60;1.35;;;;;;;;;;5026825;28;20239;-90
2023/05/24 14:25:15;;;;;;;3.90;1.92;;;;;;;;;;5033784;28;20219;-91
2023/05/24 14:27:45;;;;;;;2.10;2.00;;;;;;;;;;5037755;28;20234;-90
2023/05/24 14:30:17;;;;;;;2.58;2.40;;;;;;;;;;5017916;28;20213;-91
2023/05/24 14:32:55;;;;;;;1.60;1.50;;;;;;;;;;5032143;28;20286;-90
2023/05/24 14:35:44;;;;;;;1.60;1.50;;;;;;;;;;4998092;28;20552;-89
2023/05/24 14:38:22;;;;;;;2.35;1.20;;;;;;;;;;4986741;28;20304;-90
2023/05/24 14:41:14;;;;;;;1.95;1.85;;;;;;;;;;5028459;28;20239;-90
2023/05/24 14:43:48;;;;;;;2.03;1.90;;;;;;;;;;5032228;28;20220;-90
2023/05/24 14:46:21;;;;;;;1.73;1.63;;;;;;;;;;5024745;28;20266;-90
2023/05/24 14:48:58;;;;;;;1.30;1.30;;;;;;;;;;5003529;28;20241;-90
2023/05/24 14:54:28;;;;;;;4.43;1.42;;;;;;;;;;4990568;28;20220;-93
2023/05/24 15:00:04;;;;;;;2.83;1.80;;;;;;;;;;4986027;28;20221;-92
2023/05/24 15:02:56;;;;;;;2.45;2.08;;;;;;;;;;4988910;28;20259;-92
2023/05/24 15:05:40;;;;;;;1.70;1.60;;;;;;;;;;4994275;28;20237;-89
2023/05/24 15:08:13;;;;;;;4.50;1.77;;;;;;;;;;4990456;28;20636;-93
2023/05/24 15:11:10;;;;;;;1.42;1.33;;;;;;;;;;4990607;28;20221;-91
2023/05/24 15:13:54;;;;;;;0.90;0.90;;;;;;;;;;4991267;28;20687;-92
2023/05/24 15:19:44;;;;;;;1.75;1.65;;;;;;;;;;5008870;28;20263;-93
2023/05/24 15:28:50;;;;;;;0.98;0.98;;;;;;;;;;4904048;29;20220;-92
2023/05/24 15:31:45;;;;;;;2.72;1.20;;;;;;;;;;5012302;28;20332;-93
2023/05/24 15:35:01;;;;;;;1.00;1.00;;;;;;;;;;4998855;28;20237;-92
2023/05/24 15:38:03;;;;;;;0.73;0.73;;;;;;;;;;5004847;28;20644;-95
2023/05/24 15:49:36;;;;;;;1.27;0.82;;;;;;;;;;4986374;28;20225;-94
2023/05/24 16:07:22;;;;;;;1.30;1.30;;;;;;;;;;4965114;28;20234;-92
2023/05/24 16:09:59;;;;;;;1.20;1.20;;;;;;;;;;4977322;28;20250;-91
2023/05/24 16:12:38;;;;;;;1.38;1.27;;;;;;;;;;4995062;28;20222;-92
2023/05/24 16:15:49;;;;;;;;;;;;;;;;;;;;;
2023/05/24 16:24:22;;;;;;;1.20;1.17;;;;;;;;;;4918003;29;20299;-92
2023/05/24 16:26:57;;;;;;;1.00;1.00;;;;;;;;;;4992206;28;20229;-91
2023/05/24 16:29:33;;;;;;;1.08;1.08;;;;;;;;;;4992789;28;20228;-91
2023/05/24 16:32:03;;;;;;;1.33;1.25;;;;;;;;;;4992620;28;20748;-90
2023/05/24 16:37:38;;;;;;;1.25;1.15;;;;;;;;;;4997658;28;20236;-92
2023/05/24 16:43:18;;;;;;;1.13;1.13;;;;;;;;;;5028137;28;20243;-90
2023/05/24 16:46:07;;;;;;;1.55;1.23;;;;;;;;;;5028810;28;20230;-91
2023/05/24 16:48:45;;;;;;;1.52;1.45;;;;;;;;;;5032333;28;20238;-92
2023/05/24 16:51:23;;;;;;;1.10;1.10;;;;;;;;;;5028821;28;20232;-92
2023/05/24 16:54:07;;;;;;;2.17;1.65;;;;;;;;;;5031567;28;20282;-91
2023/05/24 16:56:39;;;;;;;1.15;1.05;;;;;;;;;;5034008;28;20250;-91
2023/05/24 16:59:15;;;;;;;1.50;1.40;;;;;;;;;;5049623;28;20289;-91
2023/05/24 17:01:53;;;;;;;1.02;1.02;;;;;;;;;;5053273;28;20242;-93
2023/05/24 17:04:36;;;;;;;1.27;1.27;;;;;;;;;;5037594;28;20228;-91
2023/05/24 17:07:54;;;;;;;1.77;1.08;;;;;;;;;;5031239;28;20322;-91
2023/05/24 17:10:43;;;;;;;3.28;1.38;;;;;;;;;;5017342;28;20314;-92
2023/05/24 17:13:33;;;;;;;1.45;1.35;;;;;;;;;;5030682;28;20541;-90
2023/05/24 17:16:30;;;;;;;0.88;0.88;;;;;;;;;;5028175;28;20224;-91
2023/05/24 17:19:11;;;;;;;1.55;1.25;;;;;;;;;;5032818;28;20316;-90
2023/05/24 17:21:43;;;;;;;1.25;1.25;;;;;;;;;;5032613;28;20335;-92
2023/05/24 17:24:23;;;;;;;4.10;1.80;;;;;;;;;;5032493;28;20228;-92
2023/05/24 17:27:08;;;;;;;1.40;1.35;;;;;;;;;;5030520;28;20223;-93
2023/05/24 17:32:47;;;;;;;1.17;1.10;;;;;;;;;;5027489;28;20290;-92
2023/05/24 17:35:31;;;;;;;2.83;2.63;;;;;;;;;;5031858;28;20238;-91
2023/05/24 17:38:05;;;;;;;1.80;1.70;;;;;;;;;;5034011;28;20303;-91
2023/05/24 17:40:54;;;;;;;;;;;;;;;;;;;;;
2023/05/24 17:43:47;;;;;;;1.75;1.65;;;;;;;;;;5053568;28;20726;-90
2023/05/24 17:46:29;;;;;;;2.10;2.00;;;;;;;;;;5050126;28;20288;-93
2023/05/24 17:49:38;;;;;;;1.98;1.88;;;;;;;;;;5058410;28;20666;-94
2023/05/24 17:55:32;;;;;;;2.03;1.92;;;;;;;;;;5066769;28;20239;-94
2023/05/24 18:13:13;;;;;;;2.40;2.20;;;;;;;;;;5049559;23;20239;-92
2023/05/24 18:15:56;;;;;;;1.55;1.55;;;;;;;;;;5034678;28;20227;-93
2023/05/24 18:18:30;;;;;;;2.65;2.45;;;;;;;;;;5033227;28;20227;-93
2023/05/24 18:21:08;;;;;;;2.50;2.08;;;;;;;;;;5033213;28;20265;-92
2023/05/24 18:26:20;;;;;;;2.20;2.10;;;;;;;;;;5032382;28;20231;-91
2023/05/24 18:29:29;;;;;;;1.52;1.42;;;;;;;;;;5031025;28;20243;-93
2023/05/24 18:32:10;;;;;;;1.88;1.58;;;;;;;;;;4997345;28;20232;-92
2023/05/24 18:35:03;;;;;;;;;;;;;;;;;;;;;
2023/05/24 18:37:32;;;;;;;2.80;2.70;;;;;;;;;;5036950;28;20944;-91
2023/05/24 18:40:44;;;;;;;2.47;2.28;;;;;;;;;;5033857;28;20263;-92
2023/05/24 18:43:15;;;;;;;3.92;3.50;;;;;;;;;;5024148;28;20270;-92
2023/05/24 18:45:52;;;;;;;3.20;2.88;;;;;;;;;;5034864;28;20743;-91
2023/05/24 18:48:40;;;;;;;5.65;3.47;;;;;;;;;;5033243;28;20281;-88
2023/05/24 18:51:37;;;;;;;5.13;3.22;;;;;;;;;;5033097;28;20236;-92
2023/05/24 19:00:26;;;;;;;3.80;3.45;;;;;;;;;;5014430;28;20348;-91
2023/05/24 19:03:13;;;;;;;;;;;;;;;;;;;;;
2023/05/24 19:05:53;;;;;;;3.95;3.45;;;;;;;;;;5032466;28;20230;-92
2023/05/24 19:11:34;;;;;;;3.65;3.45;;;;;;;;;;5041774;28;20355;-93
2023/05/24 19:14:08;;;;;;;5.22;3.05;;;;;;;;;;5048976;28;20234;-93
2023/05/24 19:20:13;;;;;;;;;;;;;;;;;;;;;
2023/05/24 19:26:06;;;;;;;2.30;2.10;;;;;;;;;;5047880;28;20232;-92
2023/05/24 19:44:14;;;;;;;2.08;1.80;;;;;;;;;;5040160;28;20283;-94
2023/05/24 20:05:16;;;;;;;3.90;2.28;;;;;;;;;;5093896;22;20259;-93
2023/05/24 20:08:40;;;;;;;;;;;;;;;;;;;;;
2023/05/24 20:17:40;;;;;;;2.17;2.08;;;;;;;;;;4514849;27;16375332;-93
2023/05/24 20:26:35;;;;;;;2.70;2.25;;;;;;;;;;5091472;28;20199;-91
2023/05/24 20:29:24;;;;;;;2.08;1.90;;;;;;;;;;5085309;28;20287;-92
2023/05/24 20:32:05;;;;;;;3.15;2.00;;;;;;;;;;5090289;28;20268;-91
2023/05/24 20:34:37;;;;;;;2.00;1.73;;;;;;;;;;5091280;28;20284;-92
2023/05/24 20:37:07;;;;;;;2.10;2.00;;;;;;;;;;5091111;28;20232;-90
2023/05/24 20:39:46;;;;;;;4.13;2.13;;;;;;;;;;5090169;28;20202;-92
2023/05/24 20:42:29;;;;;;;1.60;1.60;;;;;;;;;;5090932;28;20202;-92
2023/05/24 20:45:22;;;;;;;2.55;2.13;;;;;;;;;;5090343;28;20216;-93
2023/05/24 21:00:35;;;;;;;1.75;1.65;;;;;;;;;;5306828;22;20268;-94
2023/05/24 21:03:18;;;;;;;1.80;1.70;;;;;;;;;;5118767;28;20199;-94
2023/05/24 21:08:33;;;;;;;2.63;1.95;;;;;;;;;;5124280;28;20189;-93
2023/05/24 21:14:01;;;;;;;1.95;1.83;;;;;;;;;;5134799;28;20713;-92
2023/05/24 21:16:54;;;;;;;;;;;;;;;;;;;;;
2023/05/24 21:19:40;;;;;;;1.73;1.63;;;;;;;;;;5130875;28;20192;-92
2023/05/24 21:22:13;;;;;;;3.63;3.33;;;;;;;;;;5134237;28;20223;-92
2023/05/24 21:24:58;;;;;;;3.45;2.05;;;;;;;;;;5131701;28;20201;-93
2023/05/24 21:27:50;;;;;;;2.33;2.13;;;;;;;;;;5121776;28;20198;-93
2023/05/24 21:30:18;;;;;;;2.15;1.88;;;;;;;;;;5115467;28;20208;-93
2023/05/24 21:33:15;;;;;;;2.97;1.80;;;;;;;;;;5115586;28;20212;-94
2023/05/24 21:36:18;;;;;;;;;;;;;;;;;;;;;
2023/05/24 21:39:24;;;;;;;2.20;1.53;;;;;;;;;;5115515;28;20210;-92
2023/05/24 21:42:29;;;;;;;4.10;2.30;;;;;;;;;;5115007;28;20283;-93
2023/05/24 21:45:04;;;;;;;3.22;2.03;;;;;;;;;;5114406;28;20274;-93
2023/05/24 21:47:36;;;;;;;2.17;2.08;;;;;;;;;;5112834;27;20239;-93
2023/05/24 21:50:19;;;;;;;3.58;2.65;;;;;;;;;;5115144;28;20251;-93
2023/05/24 21:52:57;;;;;;;2.20;2.10;;;;;;;;;;5116452;28;20201;-91
2023/05/24 21:58:17;;;;;;;2.15;2.05;;;;;;;;;;5092314;28;20204;-93
2023/05/24 22:01:02;;;;;;;2.10;2.00;;;;;;;;;;5115305;28;20270;-93
2023/05/24 22:03:34;;;;;;;2.33;2.13;;;;;;;;;;5115008;28;20221;-93
2023/05/24 22:06:09;;;;;;;4.93;1.80;;;;;;;;;;5114630;28;20231;-92
2023/05/24 22:08:47;;;;;;;2.57;2.40;;;;;;;;;;5114661;28;20221;-93
2023/05/24 22:14:47;;;;;;;2.80;2.10;;;;;;;;;;5069704;28;20228;-92
2023/05/24 22:17:17;;;;;;;3.47;2.27;;;;;;;;;;5112416;28;20332;-93
2023/05/24 22:20:02;;;;;;;2.10;2.00;;;;;;;;;;5114113;28;20202;-94
2023/05/24 22:22:38;;;;;;;2.40;2.30;;;;;;;;;;5113790;28;20195;-92
2023/05/24 22:25:08;;;;;;;3.07;2.77;;;;;;;;;;5115083;28;20200;-92
2023/05/24 22:27:40;;;;;;;2.30;2.10;;;;;;;;;;5114523;28;20205;-93
2023/05/24 22:30:26;;;;;;;2.83;2.30;;;;;;;;;;5115067;28;20203;-94
2023/05/24 22:33:12;;;;;;;2.37;2.13;;;;;;;;;;5114602;28;20207;-91
2023/05/24 22:35:50;;;;;;;2.20;2.10;;;;;;;;;;5113378;28;20650;-92
2023/05/24 22:38:21;;;;;;;3.90;2.53;;;;;;;;;;5113259;28;20481;-94
2023/05/24 22:43:40;;;;;;;6.77;2.10;;;;;;;;;;5109321;28;20277;-91
2023/05/24 22:46:12;;;;;;;3.93;3.03;;;;;;;;;;5113606;28;20217;-92
2023/05/24 22:48:43;;;;;;;7.83;3.60;;;;;;;;;;5113176;28;20193;-92
2023/05/24 22:51:15;;;;;;;4.00;3.37;;;;;;;;;;5113758;28;20201;-93
2023/05/24 22:54:04;;;;;;;2.77;2.57;;;;;;;;;;5114740;28;20205;-92
2023/05/24 22:56:56;;;;;;;2.13;2.00;;;;;;;;;;5114897;28;20228;-94
2023/05/24 22:59:27;;;;;;;2.60;2.50;;;;;;;;;;5112810;28;20235;-93
2023/05/24 23:02:15;;;;;;;2.60;2.50;;;;;;;;;;5113116;28;20208;-94
2023/05/24 23:04:49;;;;;;;2.60;2.33;;;;;;;;;;5113797;28;20223;-93
2023/05/24 23:07:20;;;;;;;5.67;2.33;;;;;;;;;;5114392;28;20203;-93
2023/05/24 23:09:58;;;;;;;2.40;2.00;;;;;;;;;;5113185;28;20199;-93
2023/05/24 23:12:30;;;;;;;2.20;2.10;;;;;;;;;;5113773;28;20327;-94
2023/05/24 23:17:52;;;;;;;3.57;2.27;;;;;;;;;;5105777;28;20240;-94
2023/05/24 23:20:19;;;;;;;2.50;2.07;;;;;;;;;;5115610;28;20196;-93
2023/05/24 23:22:50;;;;;;;3.30;2.47;;;;;;;;;;5118118;28;20194;-92
2023/05/24 23:25:20;;;;;;;2.93;2.30;;;;;;;;;;5116094;28;20205;-92
2023/05/24 23:27:57;;;;;;;1.90;1.60;;;;;;;;;;5117044;28;20265;-92
2023/05/24 23:30:31;;;;;;;2.33;2.20;;;;;;;;;;5120148;28;20216;-93
2023/05/24 23:33:07;;;;;;;2.90;2.13;;;;;;;;;;5117098;28;20244;-91
2023/05/24 23:35:39;;;;;;;1.90;1.80;;;;;;;;;;5119266;28;20222;-92
2023/05/24 23:38:20;;;;;;;2.40;2.00;;;;;;;;;;5126264;28;20181;-91
2023/05/24 23:40:53;;;;;;;4.43;2.33;;;;;;;;;;5131639;28;20200;-91
2023/05/24 23:43:25;;;;;;;2.57;2.37;;;;;;;;;;5120119;28;20230;-91
2023/05/24 23:45:54;;;;;;;2.63;2.53;;;;;;;;;;5120166;28;20465;-91
2023/05/24 23:48:28;;;;;;;2.90;2.63;;;;;;;;;;5119399;28;20224;-92
2023/05/24 23:51:08;;;;;;;2.50;2.30;;;;;;;;;;5117286;28;20194;-92
2023/05/24 23:53:42;;;;;;;3.37;2.33;;;;;;;;;;5118669;28;20203;-92
2023/05/24 23:56:15;;;;;;;2.57;2.37;;;;;;;;;;5118736;28;20293;-92
2023/05/24 23:58:49;;;;;;;7.00;2.70;;;;;;;;;;5118732;28;20230;-92
